createdAt,value
2019-06-07T00:01:08.471Z,80.55
2019-06-07T00:06:20.084Z,81.03
2019-06-07T00:11:21.383Z,81.11
2019-06-07T00:16:28.449Z,80.54
2019-06-07T00:22:13.394Z,79.95
2019-06-07T00:26:57.239Z,80.41
2019-06-07T00:31:47.688Z,81.18
2019-06-07T00:36:53.011Z,82.78
2019-06-07T00:41:58.300Z,83.41
2019-06-07T00:47:04.085Z,82.19
2019-06-07T00:52:09.319Z,83.06
2019-06-07T00:57:16.713Z,83.51
2019-06-07T01:02:25.997Z,82.83
2019-06-07T01:07:29.521Z,84.05
2019-06-07T01:12:34.816Z,82.71
2019-06-07T01:17:59.922Z,82.29
2019-06-07T01:22:47.366Z,82.64
2019-06-07T01:27:52.786Z,83.23
2019-06-07T01:32:58.249Z,83.50
2019-06-07T01:38:04.769Z,83.78
2019-06-07T01:43:10.350Z,83.47
2019-06-07T01:48:20.748Z,83.23
2019-06-07T01:53:25.728Z,84.08
2019-06-07T01:58:29.697Z,83.45
2019-06-07T02:03:35.195Z,83.39
2019-06-07T02:08:40.449Z,83.34
2019-06-07T02:13:45.767Z,83.27
2019-06-07T02:19:01.686Z,84.26
2019-06-07T02:23:58.249Z,84.42
2019-06-07T02:29:04.568Z,84.63
2019-06-07T02:34:09.897Z,83.72
2019-06-07T02:39:15.960Z,84.10
2019-06-07T02:44:24.075Z,84.24
2019-06-07T02:49:34.204Z,84.41
2019-06-07T02:54:40.272Z,84.18
2019-06-07T03:00:05.004Z,84.54
2019-06-07T03:04:51.572Z,84.34
2019-06-07T03:09:57.465Z,84.83
2019-06-07T03:15:03.849Z,84.83
2019-06-07T03:20:11.084Z,84.63
2019-06-07T03:25:16.588Z,84.52
2019-06-07T03:30:38.811Z,84.14
2019-06-07T03:35:31.308Z,83.68
2019-06-07T03:40:39.584Z,83.46
2019-06-07T03:48:45.400Z,83.84
2019-06-07T03:53:50.971Z,84.12
2019-06-07T03:58:56.987Z,84.47
2019-06-07T04:04:02.687Z,84.80
2019-06-07T04:09:08.472Z,85.06
2019-06-07T04:14:14.021Z,84.96
2019-06-07T04:19:19.415Z,85.08
2019-06-07T04:24:25.214Z,84.82
2019-06-07T04:29:33.939Z,84.33
2019-06-07T04:34:42.451Z,84.86
2019-06-07T04:39:45.723Z,85.54
2019-06-07T04:44:51.780Z,86.13
2019-06-07T04:49:59.707Z,85.41
2019-06-07T04:55:05.146Z,86.20
2019-06-07T05:00:45.096Z,86.97
2019-06-07T05:05:18.471Z,86.82
2019-06-07T05:10:23.910Z,87.59
2019-06-07T05:15:29.595Z,87.50
2019-06-07T05:20:36.081Z,87.14
2019-06-07T05:25:44.529Z,86.73
2019-06-07T05:31:07.713Z,86.90
2019-06-07T05:35:56.668Z,86.66
2019-06-07T05:41:03.006Z,86.57
2019-06-07T05:46:08.336Z,86.42
2019-06-07T05:51:13.824Z,85.87
2019-06-07T05:56:19.348Z,86.06
2019-06-07T06:02:00.140Z,85.22
2019-06-07T06:06:31.877Z,83.96
2019-06-07T06:11:49.460Z,83.90
2019-06-07T06:16:47.931Z,82.96
2019-06-07T06:21:52.423Z,82.88
2019-06-07T06:27:15.211Z,82.19
2019-06-07T06:37:11.968Z,81.69
2019-06-07T06:42:17.331Z,81.56
2019-06-07T06:50:07.461Z,78.96
2019-06-07T06:55:13.029Z,76.93
2019-06-07T07:00:20.121Z,76.14
2019-06-07T07:05:25.762Z,73.86
2019-06-07T07:10:40.770Z,73.24
2019-06-07T07:15:48.134Z,73.75
2019-06-07T07:20:57.082Z,71.46
2019-06-07T07:26:00.383Z,70.74
2019-06-07T07:31:05.884Z,69.93
2019-06-07T07:36:28.708Z,69.46
2019-06-07T07:41:18.293Z,68.85
2019-06-07T07:46:29.781Z,68.65
2019-06-07T07:51:30.513Z,66.60
2019-06-07T07:56:35.807Z,68.47
2019-06-07T08:01:41.091Z,66.99
2019-06-07T08:06:46.812Z,69.10
2019-06-07T08:11:55.868Z,70.10
2019-06-07T08:16:59.717Z,68.40
2019-06-07T08:22:04.986Z,65.29
2019-06-07T08:27:25.382Z,65.45
2019-06-07T08:32:17.500Z,64.17
2019-06-07T08:37:22.850Z,61.64
2019-06-07T08:42:37.105Z,63.21
2019-06-07T08:47:35.548Z,60.81
2019-06-07T08:52:40.908Z,62.00
2019-06-07T08:57:46.520Z,61.14
2019-06-07T09:02:53.166Z,60.93
2019-06-07T09:08:21.079Z,61.38
2019-06-07T09:13:11.632Z,61.39
2019-06-07T09:23:21.681Z,59.33
2019-06-07T09:28:27.462Z,58.48
2019-06-07T09:33:32.907Z,56.58
2019-06-07T09:38:38.234Z,58.16
2019-06-07T09:44:01.362Z,56.74
2019-06-07T09:54:01.260Z,57.21
2019-06-07T09:59:07.542Z,58.92
2019-06-07T10:04:30.223Z,56.00
2019-06-07T10:14:27.673Z,56.66
2019-06-07T10:19:33.331Z,57.00
2019-06-07T10:24:38.733Z,55.73
2019-06-07T10:29:46.234Z,54.77
2019-06-07T10:34:52.472Z,56.94
2019-06-07T10:39:57.847Z,56.56
2019-06-07T10:45:04.872Z,54.81
2019-06-07T10:50:10.621Z,55.54
2019-06-07T10:55:15.997Z,54.51
2019-06-07T11:00:21.874Z,53.56
2019-06-07T11:05:27.498Z,53.87
2019-06-07T11:10:33.171Z,54.30
2019-06-07T11:15:38.909Z,52.67
2019-06-07T11:20:44.234Z,54.53
2019-06-07T11:25:49.586Z,52.67
2019-06-07T11:30:54.855Z,53.59
2019-06-07T11:36:00.100Z,51.92
2019-06-07T11:41:05.364Z,50.94
2019-06-07T11:46:10.999Z,50.76
2019-06-07T11:51:16.395Z,48.93
2019-06-07T11:56:22.517Z,49.21
2019-06-07T12:01:28.731Z,49.43
2019-06-07T12:06:34.023Z,49.44
2019-06-07T12:11:39.322Z,49.46
2019-06-07T12:16:44.967Z,48.02
2019-06-07T12:21:50.308Z,48.76
2019-06-07T12:26:55.695Z,49.34
2019-06-07T12:32:01.097Z,50.12
2019-06-07T12:37:07.396Z,48.91
2019-06-07T12:42:16.243Z,49.59
2019-06-07T12:47:23.264Z,47.81
2019-06-07T12:52:28.835Z,45.10
2019-06-07T12:57:34.162Z,43.08
2019-06-07T13:02:40.239Z,41.67
2019-06-07T13:07:46.975Z,38.93
2019-06-07T13:12:52.282Z,38.25
2019-06-07T13:17:57.598Z,37.09
2019-06-07T13:23:03.243Z,37.18
2019-06-07T13:28:08.660Z,36.10
2019-06-07T13:33:16.790Z,34.85
2019-06-07T13:38:26.285Z,34.57
2019-06-07T13:43:31.624Z,35.85
2019-06-07T13:48:36.928Z,35.51
2019-06-07T13:53:42.589Z,34.11
2019-06-07T13:58:48.025Z,33.83
2019-06-07T14:03:54.313Z,32.41
2019-06-07T14:08:59.580Z,33.56
2019-06-07T14:14:05.214Z,32.77
2019-06-07T14:19:10.641Z,32.47
2019-06-07T14:24:15.957Z,31.91
2019-06-07T14:29:21.524Z,32.81
2019-06-07T14:34:28.672Z,30.70
2019-06-07T14:39:34.196Z,31.37
2019-06-07T14:44:39.513Z,31.50
2019-06-07T14:49:45.025Z,33.32
2019-06-07T14:54:50.409Z,37.40
2019-06-07T14:59:55.674Z,40.61
2019-06-07T15:05:01.736Z,42.22
2019-06-07T15:10:09.573Z,38.97
2019-06-07T15:15:14.970Z,35.05
2019-06-07T15:20:20.353Z,37.54
2019-06-07T15:25:26.956Z,41.49
2019-06-07T15:30:33.650Z,43.80
2019-06-07T15:35:39.193Z,45.48
2019-06-07T15:40:44.544Z,47.23
2019-06-07T15:45:50.015Z,51.26
2019-06-07T15:50:56.590Z,49.25
2019-06-07T15:56:02.899Z,50.20
2019-06-07T16:01:08.128Z,56.75
2019-06-07T16:06:13.740Z,58.61
2019-06-07T16:11:19.060Z,64.84
2019-06-07T16:16:24.670Z,67.23
2019-06-07T16:21:30.432Z,70.29
2019-06-07T16:26:36.053Z,71.14
2019-06-07T16:31:44.927Z,75.37
2019-06-07T16:36:50.607Z,73.34
2019-06-07T16:41:56.014Z,70.79
2019-06-07T16:47:01.401Z,69.10
2019-06-07T16:52:06.668Z,69.43
2019-06-07T16:57:11.987Z,69.37
2019-06-07T17:02:17.306Z,71.07
2019-06-07T17:07:22.589Z,74.26
2019-06-07T17:12:29.005Z,75.65
2019-06-07T17:17:34.334Z,72.96
2019-06-07T17:22:42.002Z,72.75
2019-06-07T17:27:48.266Z,76.10
2019-06-07T17:32:59.174Z,78.94
2019-06-07T17:38:00.721Z,79.06
2019-06-07T17:43:06.406Z,75.67
2019-06-07T17:48:11.690Z,78.09
2019-06-07T17:53:17.197Z,77.28
2019-06-07T17:58:22.846Z,78.82
2019-06-07T18:03:28.151Z,78.52
2019-06-07T18:08:33.900Z,78.76
2019-06-07T18:13:39.128Z,77.25
2019-06-07T18:18:44.516Z,74.73
2019-06-07T18:23:50.351Z,76.85
2019-06-07T18:28:55.758Z,72.75
2019-06-07T18:34:02.564Z,74.86
2019-06-07T18:39:09.103Z,74.08
2019-06-07T18:44:21.502Z,77.02
2019-06-07T18:49:22.538Z,75.13
2019-06-07T18:54:28.180Z,76.33
2019-06-07T18:59:33.646Z,74.73
2019-06-07T19:04:38.863Z,74.64
2019-06-07T19:09:44.651Z,73.65
2019-06-07T19:14:51.515Z,75.56
2019-06-07T19:19:58.180Z,75.75
2019-06-07T19:25:03.773Z,76.55
2019-06-07T19:30:09.804Z,75.63
2019-06-07T19:35:17.294Z,76.42
2019-06-07T19:40:23.233Z,76.93
2019-06-07T19:45:31.424Z,78.71
2019-06-07T19:50:35.599Z,80.80
2019-06-07T19:55:42.088Z,79.36
2019-06-07T20:00:47.780Z,81.07
2019-06-07T20:05:54.040Z,81.99
2019-06-07T20:11:00.559Z,81.19
2019-06-07T20:16:05.885Z,81.13
2019-06-07T20:21:11.822Z,80.91
2019-06-07T20:26:17.349Z,79.93
2019-06-07T20:31:23.565Z,80.64
2019-06-07T20:36:30.372Z,80.07
2019-06-07T20:41:36.593Z,81.35
2019-06-07T20:46:42.085Z,80.67
2019-06-07T20:51:47.526Z,82.25
2019-06-07T20:56:52.766Z,82.93
2019-06-07T21:01:58.694Z,83.35
2019-06-07T21:07:05.456Z,84.92
2019-06-07T21:12:10.726Z,83.14
2019-06-07T21:17:16.309Z,83.99
2019-06-07T21:22:21.921Z,84.23
2019-06-07T21:27:27.161Z,82.60
2019-06-07T21:32:32.486Z,80.03
2019-06-07T21:37:38.190Z,79.02
2019-06-07T21:42:43.580Z,77.25
2019-06-07T21:47:49.132Z,73.36
2019-06-07T21:52:54.415Z,75.53
2019-06-07T21:57:59.658Z,73.58
2019-06-07T22:06:59.988Z,75.58
2019-06-07T22:12:06.435Z,75.51
2019-06-07T22:17:12.360Z,77.20
2019-06-07T22:22:17.691Z,77.58
2019-06-07T22:27:23.099Z,77.28
2019-06-07T22:32:28.522Z,77.19
2019-06-07T22:37:34.126Z,78.42
2019-06-07T22:42:39.530Z,77.52
2019-06-07T22:47:45.676Z,78.71
2019-06-07T22:52:51.473Z,77.99
2019-06-07T22:57:58.623Z,77.53
2019-06-07T23:03:03.950Z,78.86
2019-06-07T23:08:10.988Z,79.26
2019-06-07T23:13:17.718Z,77.83
2019-06-07T23:18:23.056Z,78.06
2019-06-07T23:23:28.586Z,78.51
2019-06-07T23:28:33.987Z,73.34
2019-06-07T23:33:39.589Z,74.22
2019-06-07T23:38:44.938Z,72.42
2019-06-07T23:43:50.624Z,71.71
2019-06-07T23:48:56.552Z,71.83
2019-06-07T23:54:02.005Z,72.19
2019-06-07T23:59:07.717Z,71.11
